sensor_id;sensor_type;location;lat;lon;timestamp;pressure;altitude;pressure_sealevel;temperature;humidity
11542;BME280;5827;49.482;7.716;2023-02-13T00:00:25;100771.75;;;7.00;100.00
11542;BME280;5827;49.482;7.716;2023-02-13T00:02:27;100774.59;;;6.99;100.00
11542;BME280;5827;49.482;7.716;2023-02-13T00:04:28;100772.13;;;6.97;100.00
11542;BME280;5827;49.482;7.716;2023-02-13T00:06:30;100771.91;;;7.07;100.00
11542;BME280;5827;49.482;7.716;2023-02-13T00:08:31;100773.41;;;7.09;100.00
11542;BME280;5827;49.482;7.716;2023-02-13T00:10:33;100762.91;;;7.08;100.00
11542;BME280;5827;49.482;7.716;2023-02-13T00:12:35;100765.47;;;6.93;100.00
11542;BME280;5827;49.482;7.716;2023-02-13T00:14:38;100762.63;;;6.86;100.00
11542;BME280;5827;49.482;7.716;2023-02-13T00:16:39;100762.63;;;6.95;100.00
11542;BME280;5827;49.482;7.716;2023-02-13T00:18:41;100767.16;;;6.70;100.00
11542;BME280;5827;49.482;7.716;2023-02-13T00:20:42;100756.66;;;6.84;100.00
11542;BME280;5827;49.482;7.716;2023-02-13T00:22:44;100759.31;;;6.84;100.00
11542;BME280;5827;49.482;7.716;2023-02-13T00:24:45;100760.66;;;6.64;100.00
11542;BME280;5827;49.482;7.716;2023-02-13T00:26:47;100761.84;;;6.70;100.00
11542;BME280;5827;49.482;7.716;2023-02-13T00:28:50;100761.47;;;6.89;100.00
11542;BME280;5827;49.482;7.716;2023-02-13T00:30:51;100756.69;;;6.60;100.00
11542;BME280;5827;49.482;7.716;2023-02-13T00:32:53;100760.16;;;6.69;100.00
11542;BME280;5827;49.482;7.716;2023-02-13T00:34:54;100763.63;;;6.77;100.00
11542;BME280;5827;49.482;7.716;2023-02-13T00:36:56;100773.00;;;6.65;100.00
11542;BME280;5827;49.482;7.716;2023-02-13T00:38:57;100764.84;;;6.58;100.00
11542;BME280;5827;49.482;7.716;2023-02-13T00:40:59;100766.16;;;6.62;100.00
11542;BME280;5827;49.482;7.716;2023-02-13T00:43:00;100763.81;;;6.76;100.00
11542;BME280;5827;49.482;7.716;2023-02-13T00:45:03;100765.34;;;6.70;100.00
11542;BME280;5827;49.482;7.716;2023-02-13T00:47:05;100761.84;;;6.53;100.00
11542;BME280;5827;49.482;7.716;2023-02-13T00:49:07;100761.66;;;6.55;100.00
11542;BME280;5827;49.482;7.716;2023-02-13T00:51:08;100763.53;;;6.30;100.00
11542;BME280;5827;49.482;7.716;2023-02-13T00:53:10;100767.34;;;6.35;100.00
11542;BME280;5827;49.482;7.716;2023-02-13T00:55:11;100760.22;;;6.28;100.00
11542;BME280;5827;49.482;7.716;2023-02-13T00:57:13;100760.03;;;6.29;100.00
11542;BME280;5827;49.482;7.716;2023-02-13T00:59:14;100762.00;;;6.27;100.00
11542;BME280;5827;49.482;7.716;2023-02-13T01:01:18;100761.53;;;6.40;100.00
11542;BME280;5827;49.482;7.716;2023-02-13T01:03:20;100757.53;;;6.44;100.00
11542;BME280;5827;49.482;7.716;2023-02-13T01:05:22;100762.19;;;6.50;100.00
11542;BME280;5827;49.482;7.716;2023-02-13T01:07:24;100757.19;;;6.39;100.00
11542;BME280;5827;49.482;7.716;2023-02-13T01:09:25;100758.22;;;6.38;100.00
11542;BME280;5827;49.482;7.716;2023-02-13T01:11:26;100758.53;;;6.35;100.00
11542;BME280;5827;49.482;7.716;2023-02-13T01:13:28;100763.34;;;6.31;100.00
11542;BME280;5827;49.482;7.716;2023-02-13T01:15:30;100756.53;;;6.53;100.00
11542;BME280;5827;49.482;7.716;2023-02-13T01:17:33;100763.69;;;6.36;100.00
11542;BME280;5827;49.482;7.716;2023-02-13T01:19:34;100761.53;;;6.40;100.00
11542;BME280;5827;49.482;7.716;2023-02-13T01:21:36;100766.34;;;6.45;100.00
11542;BME280;5827;49.482;7.716;2023-02-13T01:23:37;100779.84;;;6.51;100.00
11542;BME280;5827;49.482;7.716;2023-02-13T01:25:39;100775.69;;;6.32;100.00
11542;BME280;5827;49.482;7.716;2023-02-13T01:27:41;100769.84;;;6.29;100.00
11542;BME280;5827;49.482;7.716;2023-02-13T01:29:42;100772.84;;;6.26;100.00
11542;BME280;5827;49.482;7.716;2023-02-13T01:31:44;100768.66;;;6.31;100.00
11542;BME280;5827;49.482;7.716;2023-02-13T01:33:47;100774.03;;;6.23;100.00
11542;BME280;5827;49.482;7.716;2023-02-13T01:35:48;100772.34;;;6.30;100.00
11542;BME280;5827;49.482;7.716;2023-02-13T01:37:50;100774.31;;;6.36;100.00
11542;BME280;5827;49.482;7.716;2023-02-13T01:39:51;100776.66;;;6.31;100.00
11542;BME280;5827;49.482;7.716;2023-02-13T01:41:53;100773.66;;;6.10;100.00
11542;BME280;5827;49.482;7.716;2023-02-13T01:43:56;100770.69;;;6.29;100.00
11542;BME280;5827;49.482;7.716;2023-02-13T01:46:00;100770.84;;;6.36;100.00
11542;BME280;5827;49.482;7.716;2023-02-13T01:48:04;100769.84;;;6.21;100.00
11542;BME280;5827;49.482;7.716;2023-02-13T01:50:10;100774.03;;;6.23;100.00
11542;BME280;5827;49.482;7.716;2023-02-13T01:52:14;100768.53;;;6.25;100.00
11542;BME280;5827;49.482;7.716;2023-02-13T01:54:18;100775.69;;;6.32;100.00
11542;BME280;5827;49.482;7.716;2023-02-13T01:56:25;100776.31;;;6.26;100.00
11542;BME280;5827;49.482;7.716;2023-02-13T01:58:31;100773.16;;;6.06;100.00
11542;BME280;5827;49.482;7.716;2023-02-13T02:00:34;100763.69;;;6.12;100.00
11542;BME280;5827;49.482;7.716;2023-02-13T02:02:44;100758.03;;;6.15;100.00
11542;BME280;5827;49.482;7.716;2023-02-13T02:04:48;100751.38;;;6.11;100.00
11542;BME280;5827;49.482;7.716;2023-02-13T02:06:54;100752.38;;;6.02;100.00
11542;BME280;5827;49.482;7.716;2023-02-13T02:09:00;100758.19;;;6.14;100.00
11542;BME280;5827;49.482;7.716;2023-02-13T02:11:06;100747.38;;;5.99;100.00
11542;BME280;5827;49.482;7.716;2023-02-13T02:13:13;100747.03;;;6.02;100.00
11542;BME280;5827;49.482;7.716;2023-02-13T02:15:15;100753.53;;;6.07;100.00
11542;BME280;5827;49.482;7.716;2023-02-13T02:17:17;100756.19;;;6.07;100.00
11542;BME280;5827;49.482;7.716;2023-02-13T02:19:25;100762.34;;;6.16;100.00
11542;BME280;5827;49.482;7.716;2023-02-13T02:24:39;100758.44;;;5.86;100.00
11542;BME280;5827;49.482;7.716;2023-02-13T02:27:03;100760.25;;;5.69;100.00
11542;BME280;5827;49.482;7.716;2023-02-13T02:29:19;100758.41;;;5.61;100.00
11542;BME280;5827;49.482;7.716;2023-02-13T02:31:56;100751.72;;;5.41;100.00
11542;BME280;5827;49.482;7.716;2023-02-13T02:34:09;100753.31;;;5.34;100.00
11542;BME280;5827;49.482;7.716;2023-02-13T02:36:21;100753.59;;;5.15;100.00
11542;BME280;5827;49.482;7.716;2023-02-13T02:38:39;100747.75;;;5.11;100.00
11542;BME280;5827;49.482;7.716;2023-02-13T02:40:52;100751.41;;;5.10;100.00
11542;BME280;5827;49.482;7.716;2023-02-13T02:43:07;100748.53;;;5.03;100.00
11542;BME280;5827;49.482;7.716;2023-02-13T02:45:21;100753.97;;;4.94;100.00
11542;BME280;5827;49.482;7.716;2023-02-13T02:47:31;100740.53;;;4.95;100.00
11542;BME280;5827;49.482;7.716;2023-02-13T02:50:01;100747.09;;;4.83;100.00
11542;BME280;5827;49.482;7.716;2023-02-13T02:52:07;100747.06;;;4.75;100.00
11542;BME280;5827;49.482;7.716;2023-02-13T02:54:16;100748.88;;;4.74;100.00
11542;BME280;5827;49.482;7.716;2023-02-13T02:56:40;100751.81;;;4.63;100.00
11542;BME280;5827;49.482;7.716;2023-02-13T02:58:46;100748.41;;;4.53;100.00
11542;BME280;5827;49.482;7.716;2023-02-13T03:01:12;100750.63;;;4.40;100.00
11542;BME280;5827;49.482;7.716;2023-02-13T03:03:34;100753.59;;;4.37;100.00
11542;BME280;5827;49.482;7.716;2023-02-13T03:05:54;100760.50;;;4.29;100.00
11542;BME280;5827;49.482;7.716;2023-02-13T03:08:12;100764.75;;;4.22;100.00
11542;BME280;5827;49.482;7.716;2023-02-13T03:10:20;100759.59;;;4.21;100.00
11542;BME280;5827;49.482;7.716;2023-02-13T03:13:00;100754.38;;;4.11;100.00
11542;BME280;5827;49.482;7.716;2023-02-13T03:15:21;100761.13;;;3.88;100.00
11542;BME280;5827;49.482;7.716;2023-02-13T03:17:23;100764.69;;;3.96;100.00
11542;BME280;5827;49.482;7.716;2023-02-13T03:19:55;100757.84;;;3.94;100.00
11542;BME280;5827;49.482;7.716;2023-02-13T03:22:27;100760.91;;;3.81;100.00
11542;BME280;5827;49.482;7.716;2023-02-13T03:24:38;100760.91;;;3.81;100.00
11542;BME280;5827;49.482;7.716;2023-02-13T03:26:48;100756.25;;;3.83;100.00
11542;BME280;5827;49.482;7.716;2023-02-13T03:28:57;100751.03;;;3.73;100.00
11542;BME280;5827;49.482;7.716;2023-02-13T03:31:26;100755.50;;;3.73;100.00
11542;BME280;5827;49.482;7.716;2023-02-13T03:33:46;100754.69;;;3.72;100.00
11542;BME280;5827;49.482;7.716;2023-02-13T03:36:00;100744.28;;;3.79;100.00
11542;BME280;5827;49.482;7.716;2023-02-13T03:38:25;100747.19;;;3.86;100.00
11542;BME280;5827;49.482;7.716;2023-02-13T03:40:34;100748.03;;;3.86;100.00
11542;BME280;5827;49.482;7.716;2023-02-13T03:43:03;100751.78;;;3.83;100.00
11542;BME280;5827;49.482;7.716;2023-02-13T03:45:12;100755.59;;;3.81;100.00
11542;BME280;5827;49.482;7.716;2023-02-13T03:47:32;100756.19;;;3.75;100.00
11542;BME280;5827;49.482;7.716;2023-02-13T03:49:36;100758.16;;;3.73;100.00
11542;BME280;5827;49.482;7.716;2023-02-13T03:52:02;100762.75;;;3.71;100.00
11542;BME280;5827;49.482;7.716;2023-02-13T03:54:11;100749.44;;;3.63;100.00
11542;BME280;5827;49.482;7.716;2023-02-13T03:56:17;100756.25;;;3.65;100.00
11542;BME280;5827;49.482;7.716;2023-02-13T03:58:42;100758.78;;;3.57;100.00
11542;BME280;5827;49.482;7.716;2023-02-13T04:01:05;100757.16;;;3.74;100.00
11542;BME280;5827;49.482;7.716;2023-02-13T04:03:13;100762.00;;;3.61;100.00
11542;BME280;5827;49.482;7.716;2023-02-13T04:05:19;100762.38;;;3.66;100.00
11542;BME280;5827;49.482;7.716;2023-02-13T04:07:23;100758.34;;;3.62;100.00
11542;BME280;5827;49.482;7.716;2023-02-13T04:09:35;100761.06;;;3.52;100.00
11542;BME280;5827;49.482;7.716;2023-02-13T04:11:42;100767.75;;;3.56;100.00
11542;BME280;5827;49.482;7.716;2023-02-13T04:13:49;100767.13;;;3.44;100.00
11542;BME280;5827;49.482;7.716;2023-02-13T04:15:56;100769.81;;;3.62;100.00
11542;BME280;5827;49.482;7.716;2023-02-13T04:18:05;100766.75;;;3.57;100.00
11542;BME280;5827;49.482;7.716;2023-02-13T04:20:10;100770.25;;;3.58;100.00
11542;BME280;5827;49.482;7.716;2023-02-13T04:22:12;100767.41;;;3.41;100.00
11542;BME280;5827;49.482;7.716;2023-02-13T04:24:15;100767.34;;;3.51;100.00
11542;BME280;5827;49.482;7.716;2023-02-13T04:26:19;100767.06;;;3.54;100.00
11542;BME280;5827;49.482;7.716;2023-02-13T04:28:21;100773.09;;;3.46;100.00
11542;BME280;5827;49.482;7.716;2023-02-13T04:30:22;100768.06;;;3.53;100.00
11542;BME280;5827;49.482;7.716;2023-02-13T04:32:24;100769.00;;;3.52;100.00
11542;BME280;5827;49.482;7.716;2023-02-13T04:34:26;100768.19;;;3.51;100.00
11542;BME280;5827;49.482;7.716;2023-02-13T04:36:28;100767.91;;;3.27;100.00
11542;BME280;5827;49.482;7.716;2023-02-13T04:38:30;100767.19;;;3.35;100.00
11542;BME280;5827;49.482;7.716;2023-02-13T04:40:33;100765.00;;;3.20;100.00
11542;BME280;5827;49.482;7.716;2023-02-13T04:42:35;100761.63;;;3.28;100.00
11542;BME280;5827;49.482;7.716;2023-02-13T04:44:36;100761.63;;;3.28;100.00
11542;BME280;5827;49.482;7.716;2023-02-13T04:46:38;100758.72;;;3.21;100.00
11542;BME280;5827;49.482;7.716;2023-02-13T04:48:39;100763.59;;;3.26;100.00
11542;BME280;5827;49.482;7.716;2023-02-13T04:50:41;100750.56;;;3.05;100.00
11542;BME280;5827;49.482;7.716;2023-02-13T04:52:42;100750.25;;;3.18;100.00
11542;BME280;5827;49.482;7.716;2023-02-13T04:54:44;100747.69;;;2.98;100.00
11542;BME280;5827;49.482;7.716;2023-02-13T04:56:46;100751.94;;;3.09;100.00
11542;BME280;5827;49.482;7.716;2023-02-13T04:58:48;100759.28;;;2.78;100.00
11542;BME280;5827;49.482;7.716;2023-02-13T05:00:49;100754.47;;;3.01;100.00
11542;BME280;5827;49.482;7.716;2023-02-13T05:02:51;100759.06;;;3.09;100.00
11542;BME280;5827;49.482;7.716;2023-02-13T05:04:53;100758.50;;;3.05;100.00
11542;BME280;5827;49.482;7.716;2023-02-13T05:06:54;100755.88;;;3.05;100.00
11542;BME280;5827;49.482;7.716;2023-02-13T05:08:56;100763.22;;;3.11;100.00
11542;BME280;5827;49.482;7.716;2023-02-13T05:10:57;100758.34;;;3.06;100.00
11542;BME280;5827;49.482;7.716;2023-02-13T05:13:01;100768.13;;;3.06;100.00
11542;BME280;5827;49.482;7.716;2023-02-13T05:15:03;100758.34;;;3.06;100.00
11542;BME280;5827;49.482;7.716;2023-02-13T05:17:04;100754.78;;;2.98;100.00
11542;BME280;5827;49.482;7.716;2023-02-13T05:19:06;100760.09;;;2.98;100.00
11542;BME280;5827;49.482;7.716;2023-02-13T05:21:07;100764.69;;;2.96;100.00
11542;BME280;5827;49.482;7.716;2023-02-13T05:23:26;100754.63;;;2.99;100.00
11542;BME280;5827;49.482;7.716;2023-02-13T05:25:28;100758.00;;;2.92;100.00
11542;BME280;5827;49.482;7.716;2023-02-13T05:27:29;100759.13;;;2.89;100.00
11542;BME280;5827;49.482;7.716;2023-02-13T05:29:32;100763.06;;;2.85;100.00
11542;BME280;5827;49.482;7.716;2023-02-13T05:31:33;100766.13;;;2.80;100.00
11542;BME280;5827;49.482;7.716;2023-02-13T05:33:34;100761.94;;;2.78;100.00
11542;BME280;5827;49.482;7.716;2023-02-13T05:35:36;100762.69;;;2.70;100.00
11542;BME280;5827;49.482;7.716;2023-02-13T05:37:38;100762.91;;;2.87;100.00
11542;BME280;5827;49.482;7.716;2023-02-13T05:39:39;100758.63;;;2.76;100.00
11542;BME280;5827;49.482;7.716;2023-02-13T05:41:42;100754.44;;;2.73;100.00
11542;BME280;5827;49.482;7.716;2023-02-13T05:43:43;100752.22;;;2.69;100.00
11542;BME280;5827;49.482;7.716;2023-02-13T05:45:46;100755.28;;;2.64;100.00
11542;BME280;5827;49.482;7.716;2023-02-13T05:47:48;100760.16;;;2.69;100.00
11542;BME280;5827;49.482;7.716;2023-02-13T05:49:49;100753.47;;;2.65;100.00
11542;BME280;5827;49.482;7.716;2023-02-13T05:51:51;100755.16;;;2.66;100.00
11542;BME280;5827;49.482;7.716;2023-02-13T05:53:52;100752.94;;;2.51;100.00
11542;BME280;5827;49.482;7.716;2023-02-13T05:55:54;100738.22;;;2.49;100.00
11542;BME280;5827;49.482;7.716;2023-02-13T05:57:56;100752.25;;;2.59;100.00
11542;BME280;5827;49.482;7.716;2023-02-13T05:59:57;100745.97;;;2.60;100.00
11542;BME280;5827;49.482;7.716;2023-02-13T06:02:00;100751.13;;;2.62;100.00
11542;BME280;5827;49.482;7.716;2023-02-13T06:04:02;100759.75;;;2.64;100.00
11542;BME280;5827;49.482;7.716;2023-02-13T06:06:04;100756.69;;;2.68;100.00
11542;BME280;5827;49.482;7.716;2023-02-13T06:08:06;100762.56;;;2.62;100.00
11542;BME280;5827;49.482;7.716;2023-02-13T06:10:08;100756.44;;;2.62;100.00
11542;BME280;5827;49.482;7.716;2023-02-13T06:12:09;100755.59;;;2.61;100.00
11542;BME280;5827;49.482;7.716;2023-02-13T06:14:11;100760.19;;;2.59;100.00
11542;BME280;5827;49.482;7.716;2023-02-13T06:16:13;100756.69;;;2.59;100.00
11542;BME280;5827;49.482;7.716;2023-02-13T06:18:16;100750.59;;;2.58;100.00
11542;BME280;5827;49.482;7.716;2023-02-13T06:20:18;100759.22;;;2.50;100.00
11542;BME280;5827;49.482;7.716;2023-02-13T06:22:19;100762.69;;;2.51;100.00
11542;BME280;5827;49.482;7.716;2023-02-13T06:24:20;100768.28;;;2.48;100.00
11542;BME280;5827;49.482;7.716;2023-02-13T06:26:22;100763.84;;;2.48;100.00
11542;BME280;5827;49.482;7.716;2023-02-13T06:28:23;100766.34;;;2.40;100.00
11542;BME280;5827;49.482;7.716;2023-02-13T06:30:25;100764.28;;;2.34;100.00
11542;BME280;5827;49.482;7.716;2023-02-13T06:32:27;100771.66;;;2.31;100.00
11542;BME280;5827;49.482;7.716;2023-02-13T06:34:30;100770.94;;;2.28;100.00
11542;BME280;5827;49.482;7.716;2023-02-13T06:36:31;100775.53;;;2.26;100.00
11542;BME280;5827;49.482;7.716;2023-02-13T06:38:33;100772.63;;;2.29;100.00
11542;BME280;5827;49.482;7.716;2023-02-13T06:40:34;100774.41;;;2.29;100.00
11542;BME280;5827;49.482;7.716;2023-02-13T06:42:36;100767.19;;;2.21;100.00
11542;BME280;5827;49.482;7.716;2023-02-13T06:44:37;100772.19;;;2.15;100.00
11542;BME280;5827;49.482;7.716;2023-02-13T06:46:39;100771.66;;;2.31;100.00
11542;BME280;5827;49.482;7.716;2023-02-13T06:48:40;100773.31;;;2.22;100.00
11542;BME280;5827;49.482;7.716;2023-02-13T06:50:43;100770.53;;;2.14;100.00
11542;BME280;5827;49.482;7.716;2023-02-13T06:52:45;100767.31;;;2.10;100.00
11542;BME280;5827;49.482;7.716;2023-02-13T06:54:47;100780.00;;;2.07;100.00
11542;BME280;5827;49.482;7.716;2023-02-13T06:56:49;100765.81;;;2.08;100.00
11542;BME280;5827;49.482;7.716;2023-02-13T06:58:50;100777.91;;;2.10;100.00
11542;BME280;5827;49.482;7.716;2023-02-13T07:00:52;100778.59;;;2.12;100.00
11542;BME280;5827;49.482;7.716;2023-02-13T07:02:54;100780.44;;;2.12;100.00
11542;BME280;5827;49.482;7.716;2023-02-13T07:04:55;100777.78;;;2.12;100.00
11542;BME280;5827;49.482;7.716;2023-02-13T07:06:58;100779.84;;;2.08;100.00
11542;BME280;5827;49.482;7.716;2023-02-13T07:09:00;100786.97;;;2.08;100.00
11542;BME280;5827;49.482;7.716;2023-02-13T07:11:01;100780.53;;;2.10;100.00
11542;BME280;5827;49.482;7.716;2023-02-13T07:13:03;100785.16;;;2.18;100.00
11542;BME280;5827;49.482;7.716;2023-02-13T07:15:06;100783.59;;;2.06;100.00
11542;BME280;5827;49.482;7.716;2023-02-13T07:17:08;100785.16;;;2.08;100.00
11542;BME280;5827;49.482;7.716;2023-02-13T07:19:10;100783.75;;;2.14;100.00
11542;BME280;5827;49.482;7.716;2023-02-13T07:21:11;100787.22;;;2.14;100.00
11542;BME280;5827;49.482;7.716;2023-02-13T07:23:14;100790.44;;;2.08;100.00
11542;BME280;5827;49.482;7.716;2023-02-13T07:25:16;100788.88;;;2.06;100.00
11542;BME280;5827;49.482;7.716;2023-02-13T07:27:18;100793.91;;;2.18;100.00
11542;BME280;5827;49.482;7.716;2023-02-13T07:29:20;100798.38;;;2.18;100.00
11542;BME280;5827;49.482;7.716;2023-02-13T07:31:21;100804.78;;;2.25;100.00
11542;BME280;5827;49.482;7.716;2023-02-13T07:33:23;100803.38;;;2.21;100.00
11542;BME280;5827;49.482;7.716;2023-02-13T07:35:24;100797.94;;;2.32;100.00
11542;BME280;5827;49.482;7.716;2023-02-13T07:37:26;100800.03;;;2.28;100.00
11542;BME280;5827;49.482;7.716;2023-02-13T07:39:29;100801.16;;;2.36;100.00
11542;BME280;5827;49.482;7.716;2023-02-13T07:41:31;100796.44;;;2.39;100.00
11542;BME280;5827;49.482;7.716;2023-02-13T07:43:33;100798.34;;;2.37;100.00
11542;BME280;5827;49.482;7.716;2023-02-13T07:45:34;100797.66;;;2.45;100.00
11542;BME280;5827;49.482;7.716;2023-02-13T07:47:36;100800.44;;;2.53;100.00
11542;BME280;5827;49.482;7.716;2023-02-13T07:49:37;100797.91;;;2.51;100.00
11542;BME280;5827;49.482;7.716;2023-02-13T07:51:39;100799.19;;;2.57;100.00
11542;BME280;5827;49.482;7.716;2023-02-13T07:53:40;100797.06;;;2.61;100.00
11542;BME280;5827;49.482;7.716;2023-02-13T07:55:43;100807.53;;;2.62;100.00
11542;BME280;5827;49.482;7.716;2023-02-13T07:57:45;100798.47;;;2.65;100.00
11542;BME280;5827;49.482;7.716;2023-02-13T07:59:46;100794.44;;;2.70;100.00
11542;BME280;5827;49.482;7.716;2023-02-13T08:01:48;100799.84;;;2.69;100.00
11542;BME280;5827;49.482;7.716;2023-02-13T08:03:49;100790.94;;;2.70;100.00
11542;BME280;5827;49.482;7.716;2023-02-13T08:05:51;100795.69;;;2.66;100.00
11542;BME280;5827;49.482;7.716;2023-02-13T08:07:53;100788.44;;;2.68;100.00
11542;BME280;5827;49.482;7.716;2023-02-13T08:09:54;100791.78;;;2.70;100.00
11542;BME280;5827;49.482;7.716;2023-02-13T08:12:15;100796.22;;;2.79;100.00
11542;BME280;5827;49.482;7.716;2023-02-13T08:14:17;100797.63;;;2.74;100.00
11542;BME280;5827;49.482;7.716;2023-02-13T08:16:18;100786.31;;;2.82;100.00
11542;BME280;5827;49.482;7.716;2023-02-13T08:18:20;100792.41;;;2.92;100.00
11542;BME280;5827;49.482;7.716;2023-02-13T08:20:21;100792.53;;;3.00;100.00
11542;BME280;5827;49.482;7.716;2023-02-13T08:22:23;100793.53;;;2.99;100.00
11542;BME280;5827;49.482;7.716;2023-02-13T08:24:25;100792.38;;;3.01;100.00
11542;BME280;5827;49.482;7.716;2023-02-13T08:26:26;100792.50;;;3.10;100.00
11542;BME280;5827;49.482;7.716;2023-02-13T08:28:29;100789.69;;;3.11;100.00
11542;BME280;5827;49.482;7.716;2023-02-13T08:30:31;100793.59;;;3.17;100.00
11542;BME280;5827;49.482;7.716;2023-02-13T08:32:33;100793.84;;;3.23;100.00
11542;BME280;5827;49.482;7.716;2023-02-13T08:34:34;100787.28;;;3.27;100.00
11542;BME280;5827;49.482;7.716;2023-02-13T08:36:36;100786.28;;;3.28;100.00
11542;BME280;5827;49.482;7.716;2023-02-13T08:38:37;100782.53;;;3.31;100.00
11542;BME280;5827;49.482;7.716;2023-02-13T08:40:39;100787.06;;;3.39;100.00
11542;BME280;5827;49.482;7.716;2023-02-13T08:42:41;100786.25;;;3.38;100.00
11542;BME280;5827;49.482;7.716;2023-02-13T08:44:44;100790.41;;;3.41;100.00
11542;BME280;5827;49.482;7.716;2023-02-13T08:46:45;100790.91;;;3.54;100.00
11542;BME280;5827;49.482;7.716;2023-02-13T08:48:47;100781.44;;;3.51;100.00
11542;BME280;5827;49.482;7.716;2023-02-13T08:50:48;100782.22;;;3.62;100.00
11542;BME280;5827;49.482;7.716;2023-02-13T08:52:50;100781.63;;;3.68;100.00
11542;BME280;5827;49.482;7.716;2023-02-13T08:54:51;100774.59;;;3.76;100.00
11542;BME280;5827;49.482;7.716;2023-02-13T08:56:53;100778.75;;;3.79;100.00
11542;BME280;5827;49.482;7.716;2023-02-13T08:58:54;100777.03;;;3.88;100.00
11542;BME280;5827;49.482;7.716;2023-02-13T09:00:57;100773.19;;;4.00;100.00
11542;BME280;5827;49.482;7.716;2023-02-13T09:02:59;100769.53;;;4.01;100.00
11542;BME280;5827;49.482;7.716;2023-02-13T09:05:01;100768.91;;;4.07;100.00
11542;BME280;5827;49.482;7.716;2023-02-13T09:07:03;100769.16;;;4.14;100.00
11542;BME280;5827;49.482;7.716;2023-02-13T09:09:04;100768.38;;;4.21;100.00
11542;BME280;5827;49.482;7.716;2023-02-13T09:11:06;100768.91;;;4.25;100.00
11542;BME280;5827;49.482;7.716;2023-02-13T09:13:07;100774.28;;;4.33;100.00
11542;BME280;5827;49.482;7.716;2023-02-13T09:15:09;100773.38;;;4.42;100.00
11542;BME280;5827;49.482;7.716;2023-02-13T09:17:12;100778.06;;;4.48;100.00
11542;BME280;5827;49.482;7.716;2023-02-13T09:19:17;100764.91;;;4.65;100.00
11542;BME280;5827;49.482;7.716;2023-02-13T09:21:20;100761.44;;;4.64;100.00
11542;BME280;5827;49.482;7.716;2023-02-13T09:23:23;100761.50;;;4.72;100.00
11542;BME280;5827;49.482;7.716;2023-02-13T09:25:24;100765.34;;;4.78;100.00
11542;BME280;5827;49.482;7.716;2023-02-13T09:27:26;100768.06;;;4.86;100.00
11542;BME280;5827;49.482;7.716;2023-02-13T09:29:27;100767.41;;;4.92;100.00
11542;BME280;5827;49.482;7.716;2023-02-13T09:31:30;100770.13;;;5.08;100.00
11542;BME280;5827;49.482;7.716;2023-02-13T09:33:33;100758.78;;;5.24;100.00
11542;BME280;5827;49.482;7.716;2023-02-13T09:35:35;100764.50;;;5.46;100.00
11542;BME280;5827;49.482;7.716;2023-02-13T09:37:37;100768.25;;;5.69;100.00
11542;BME280;5827;49.482;7.716;2023-02-13T09:39:38;100771.50;;;5.97;100.00
11542;BME280;5827;49.482;7.716;2023-02-13T09:41:41;100767.84;;;6.15;100.00
11542;BME280;5827;49.482;7.716;2023-02-13T09:43:47;100776.16;;;6.52;100.00
11542;BME280;5827;49.482;7.716;2023-02-13T09:45:50;100779.81;;;6.68;100.00
11542;BME280;5827;49.482;7.716;2023-02-13T09:47:53;100779.81;;;6.84;100.00
11542;BME280;5827;49.482;7.716;2023-02-13T09:49:59;100778.28;;;6.98;100.00
11542;BME280;5827;49.482;7.716;2023-02-13T09:52:03;100787.28;;;6.97;100.00
11542;BME280;5827;49.482;7.716;2023-02-13T09:54:06;100799.38;;;7.16;100.00
11542;BME280;5827;49.482;7.716;2023-02-13T09:56:12;100798.19;;;7.18;100.00
11542;BME280;5827;49.482;7.716;2023-02-13T09:58:20;100795.81;;;7.31;100.00
11542;BME280;5827;49.482;7.716;2023-02-13T10:00:32;100793.03;;;7.25;100.00
11542;BME280;5827;49.482;7.716;2023-02-13T10:02:52;100798.97;;;7.43;100.00
11542;BME280;5827;49.482;7.716;2023-02-13T10:05:07;100796.38;;;7.58;100.00
11542;BME280;5827;49.482;7.716;2023-02-13T10:07:16;100800.16;;;7.72;100.00
11542;BME280;5827;49.482;7.716;2023-02-13T10:09:28;100798.50;;;7.71;100.00
11542;BME280;5827;49.482;7.716;2023-02-13T10:11:54;100804.09;;;7.84;100.00
11542;BME280;5827;49.482;7.716;2023-02-13T10:14:08;100800.44;;;8.08;100.00
11542;BME280;5827;49.482;7.716;2023-02-13T10:16:15;100809.88;;;8.19;100.00
11542;BME280;5827;49.482;7.716;2023-02-13T10:18:20;100808.47;;;8.08;100.00
11542;BME280;5827;49.482;7.716;2023-02-13T10:20:28;100802.88;;;8.18;100.00
11542;BME280;5827;49.482;7.716;2023-02-13T10:22:34;100800.50;;;8.23;100.00
11542;BME280;5827;49.482;7.716;2023-02-13T10:24:43;100801.44;;;8.38;100.00
11542;BME280;5827;49.482;7.716;2023-02-13T10:26:46;100800.75;;;8.36;100.00
11542;BME280;5827;49.482;7.716;2023-02-13T10:28:52;100799.53;;;8.47;100.00
11542;BME280;5827;49.482;7.716;2023-02-13T10:31:13;100796.69;;;8.48;100.00
11542;BME280;5827;49.482;7.716;2023-02-13T10:33:18;100803.44;;;8.59;100.00
11542;BME280;5827;49.482;7.716;2023-02-13T10:35:27;100795.13;;;8.54;100.00
11542;BME280;5827;49.482;7.716;2023-02-13T10:37:30;100798.38;;;8.64;98.75
11542;BME280;5827;49.482;7.716;2023-02-13T10:39:31;100797.50;;;8.72;98.67
11542;BME280;5827;49.482;7.716;2023-02-13T10:41:40;100805.44;;;8.80;97.34
11542;BME280;5827;49.482;7.716;2023-02-13T10:43:49;100798.81;;;8.90;97.56
11542;BME280;5827;49.482;7.716;2023-02-13T10:46:02;100796.16;;;9.05;97.40
11542;BME280;5827;49.482;7.716;2023-02-13T10:48:17;100797.72;;;9.14;95.01
11542;BME280;5827;49.482;7.716;2023-02-13T10:50:28;100786.66;;;9.18;95.72
11542;BME280;5827;49.482;7.716;2023-02-13T10:52:41;100789.88;;;9.13;96.08
11542;BME280;5827;49.482;7.716;2023-02-13T10:55:01;100787.56;;;9.25;94.14
11542;BME280;5827;49.482;7.716;2023-02-13T10:57:13;100784.63;;;9.20;94.11
11542;BME280;5827;49.482;7.716;2023-02-13T10:59:29;100788.50;;;9.32;94.10
11542;BME280;5827;49.482;7.716;2023-02-13T11:01:40;100782.94;;;9.33;92.91
11542;BME280;5827;49.482;7.716;2023-02-13T11:03:47;100779.66;;;9.31;93.23
11542;BME280;5827;49.482;7.716;2023-02-13T11:05:53;100778.34;;;9.42;92.79